DMU weather

Dimapur Airport
Dimapur, Nagaland, India

Public forecast

Using degrees Celsius for public forecast. Weather courtesy of forecast.io.

Closest aviation weather report (METAR) to Dimapur Airport

Report is more than 6 hours old.

Closest report is Imphal Airport, 67.8 nm (125.6 km) S. Retrieved 2020/02/22 11:30 UTC (11 hours ago):

VEIM 221130Z 27005KT 4000 HZ FEW018 SCT100 22/08 Q1019 NOSIG

Closest aviation forecast (TAF) to Dimapur Airport

Forecast is more than 12 hours old.

Closest forecast is Jorhat Airport, 55.3 nm (102.5 km) NNE. Retrieved 2020/02/21 12:30 UTC (1 day ago):

TAF VEJT 210930Z 2112/2124 02005KT 6000 SCT250 BECMG 2113/2114 VRB02KT 5000 BR FEW100 SCT250 BECMG 2115/2116 3000 BR BECMG 2122/2123 1500 BR SCT090 SCT250